To NAV CANADA Home Page Login to a new session Search on AWWS site Feedback and Comments Disclaimer Vers la page française équivalente Tips FAQ What's new on the site To the Forecasts and Observations / NOTAM section To "File a Flight Plan" website Publications and other links Update of the User's profile FIC Telephone Numbers My Weather Data Folder Route Weather Data Regional Weather Data Local Weather Data To the Forecasts and Observations / NOTAM section
Request Generated 03/28/2017 at 02:16:56 UTC . Weather information available at that time is displayed.

METAR/TAF

EARLTON/EARLTON (TIMISKAMING REGIONAL)/ON    (show WxCam)

SPECI CYXR 280201Z AUTO 31005KT 9SM BKN020 BKN027 OVC100 01/00 A2993
RMK SLP148=
METAR CYXR 280200Z AUTO 32005KT 9SM SCT020 BKN027 OVC100 01/00 A2993
RMK SLP148=
METAR CYXR 280100Z AUTO 31003KT 9SM BKN029 BKN065 OVC080 01/00 A2992
RMK SLP147=
SPECI CYXR 280018Z AUTO 31004KT 9SM OVC027 01/00 A2991 RMK SLP142=
METAR CYXR 280000Z AUTO 33006KT 9SM -RA SCT012 SCT022 OVC027 01/00
A2990 RMK SLP141=

*** REMARK        : Forecast period has ended; this was the last TAF issued
*** REMARQUE : La période de prévision est échue; ceci était le dernier TAF qui a été émis
TAF CYXR 271738Z 2718/2724 32005KT 2SM -RA -DZ BR OVC006 TEMPO
2718/2724 6SM BR OVC010
RMK FCST BASED ON AUTO OBS. NXT FCST WILL BE ISSUED AT 281145Z=
Your time UTC time
Weather data provided by Environment Canada and NAV CANADA